Time;durP1;ratioP1;P1;durP2;ratioP2;P2;SDS_P1;SDS_P2;PMS_P1;PMS_P2;Temp;Humidity;BMP_temperature;BMP_pressure;BME280_temperature;BME280_humidity;BME280_pressure;Samples;Min_cycle;Max_cycle;Signal;HPM_P1;HPM_P2
2021/05/20 00:01:26;;;;;;;2.15;1.92;;;15.30;99.90;;;;;;5069085;28;20201;-73
2021/05/20 00:03:53;;;;;;;2.33;2.13;;;15.30;99.90;;;;;;5060447;28;20202;-72
2021/05/20 00:06:20;;;;;;;2.20;2.00;;;15.30;99.90;;;;;;5065831;28;20194;-72
2021/05/20 00:08:46;;;;;;;2.10;1.92;;;15.30;99.90;;;;;;5073344;28;20202;-72
2021/05/20 00:11:12;;;;;;;2.10;1.90;;;15.30;99.90;;;;;;5073998;28;20201;-73
2021/05/20 00:13:38;;;;;;;2.13;1.92;;;15.30;99.90;;;;;;5064583;28;20212;-72
2021/05/20 00:16:05;;;;;;;2.53;2.33;;;15.20;99.90;;;;;;5058970;28;20201;-72
2021/05/20 00:18:31;;;;;;;2.88;2.20;;;15.20;99.90;;;;;;5072624;28;20198;-73
2021/05/20 00:20:58;;;;;;;2.58;2.28;;;15.20;99.90;;;;;;5071803;28;20229;-72
2021/05/20 00:23:24;;;;;;;2.15;1.95;;;15.20;99.90;;;;;;5055169;28;20195;-73
2021/05/20 00:25:50;;;;;;;1.98;1.88;;;15.20;99.90;;;;;;5054151;28;20199;-73
2021/05/20 00:28:17;;;;;;;2.83;2.40;;;15.10;99.90;;;;;;5053670;28;20207;-73
2021/05/20 00:30:43;;;;;;;2.05;1.85;;;15.10;99.90;;;;;;5063022;28;20209;-72
2021/05/20 00:33:09;;;;;;;2.10;1.90;;;15.10;99.90;;;;;;5056871;28;21262;-72
2021/05/20 00:35:35;;;;;;;2.90;2.70;;;15.10;99.90;;;;;;5073794;28;20634;-72
2021/05/20 00:38:02;;;;;;;2.40;2.20;;;15.10;99.90;;;;;;5071643;28;20202;-72
2021/05/20 00:40:29;;;;;;;5.88;2.60;;;15.10;99.90;;;;;;5073750;28;20213;-72
2021/05/20 00:42:55;;;;;;;2.47;2.28;;;15.10;99.90;;;;;;5049501;28;20215;-72
2021/05/20 00:45:22;;;;;;;2.50;2.30;;;15.00;99.90;;;;;;5053749;28;20209;-72
2021/05/20 00:47:48;;;;;;;2.00;1.80;;;15.00;99.90;;;;;;5070882;28;20198;-72
2021/05/20 00:50:14;;;;;;;2.70;2.50;;;15.00;99.90;;;;;;5072864;28;20756;-72
2021/05/20 00:52:40;;;;;;;2.75;2.55;;;15.00;99.90;;;;;;5053030;28;20214;-72
2021/05/20 00:55:09;;;;;;;2.17;1.95;;;15.00;99.90;;;;;;5056282;28;20198;-72
2021/05/20 00:57:35;;;;;;;2.67;2.47;;;14.90;99.90;;;;;;5059030;28;20210;-72
2021/05/20 01:00:06;;;;;;;3.58;2.22;;;14.90;99.90;;;;;;5064493;28;20202;-72
2021/05/20 01:02:32;;;;;;;2.47;2.20;;;14.90;99.90;;;;;;5067504;28;20195;-72
2021/05/20 01:04:58;;;;;;;2.55;2.35;;;14.90;99.90;;;;;;5059707;28;20191;-73
2021/05/20 01:07:25;;;;;;;2.47;2.28;;;14.90;99.90;;;;;;5066512;28;20206;-72
2021/05/20 01:09:52;;;;;;;2.00;1.90;;;14.90;99.90;;;;;;5053097;28;20639;-72
2021/05/20 01:12:19;;;;;;;2.47;2.28;;;14.80;99.90;;;;;;5052974;28;20214;-72
2021/05/20 01:14:45;;;;;;;2.22;2.03;;;14.80;99.90;;;;;;5053092;28;20199;-73
2021/05/20 01:17:13;;;;;;;3.20;2.78;;;14.80;99.90;;;;;;5065536;28;20197;-73
2021/05/20 01:19:40;;;;;;;3.22;2.33;;;14.80;99.90;;;;;;5071789;28;20259;-73
2021/05/20 01:22:08;;;;;;;2.55;2.35;;;14.80;99.90;;;;;;5060290;28;20227;-73
2021/05/20 01:24:35;;;;;;;2.78;2.58;;;14.80;99.90;;;;;;5052984;28;20198;-74
2021/05/20 01:27:03;;;;;;;2.60;2.28;;;14.70;99.90;;;;;;5055663;28;20228;-73
2021/05/20 01:29:29;;;;;;;2.33;2.13;;;14.70;99.90;;;;;;5060054;28;20202;-74
2021/05/20 01:31:56;;;;;;;2.05;1.85;;;14.70;99.90;;;;;;5065671;28;20229;-73
2021/05/20 01:34:22;;;;;;;3.40;3.10;;;14.70;99.90;;;;;;5059587;28;20207;-73
2021/05/20 01:36:48;;;;;;;2.40;2.20;;;14.70;99.90;;;;;;5052437;28;20207;-73
2021/05/20 01:39:15;;;;;;;2.35;2.15;;;14.70;99.90;;;;;;5072761;28;20197;-73
2021/05/20 01:41:42;;;;;;;2.83;2.53;;;14.70;99.90;;;;;;5063578;28;20679;-73
2021/05/20 01:44:08;;;;;;;3.67;2.55;;;14.60;99.90;;;;;;5052566;28;20191;-73
2021/05/20 01:46:34;;;;;;;2.30;2.10;;;14.60;99.90;;;;;;5063360;28;20209;-73
2021/05/20 01:49:00;;;;;;;2.42;2.15;;;14.60;99.90;;;;;;5072370;28;20706;-73
2021/05/20 01:51:27;;;;;;;2.88;2.60;;;14.60;99.90;;;;;;5063664;28;20638;-74
2021/05/20 01:53:56;;;;;;;2.50;2.30;;;14.60;99.90;;;;;;5071857;28;20206;-74
2021/05/20 01:56:25;;;;;;;2.90;2.70;;;14.60;99.90;;;;;;5060590;28;20253;-74
2021/05/20 01:58:51;;;;;;;3.03;2.83;;;14.60;99.90;;;;;;5052208;28;20284;-73
2021/05/20 02:01:17;;;;;;;3.10;2.65;;;14.60;99.90;;;;;;5061136;28;20666;-74
2021/05/20 02:03:44;;;;;;;3.83;2.70;;;14.50;99.90;;;;;;5062181;28;20195;-73
2021/05/20 02:06:11;;;;;;;2.67;2.47;;;14.50;99.90;;;;;;5056414;28;20195;-74
2021/05/20 02:08:39;;;;;;;2.30;2.10;;;14.50;99.90;;;;;;5051731;28;20203;-74
2021/05/20 02:11:06;;;;;;;3.33;3.10;;;14.50;99.90;;;;;;5054825;28;20562;-74
2021/05/20 02:13:34;;;;;;;2.53;2.33;;;14.50;99.90;;;;;;5071819;28;20222;-74
2021/05/20 02:16:00;;;;;;;2.40;2.20;;;14.50;99.90;;;;;;5066760;28;20216;-73
2021/05/20 02:18:26;;;;;;;3.13;2.80;;;14.50;99.90;;;;;;5051519;28;20700;-73
2021/05/20 02:20:52;;;;;;;3.28;2.80;;;14.50;99.90;;;;;;5051003;28;20711;-73
2021/05/20 02:23:19;;;;;;;4.28;3.05;;;14.40;99.90;;;;;;5051681;28;20206;-73
2021/05/20 02:25:45;;;;;;;3.00;2.80;;;14.40;99.90;;;;;;5065297;28;20259;-74
2021/05/20 02:28:11;;;;;;;3.78;2.53;;;14.40;99.90;;;;;;5063105;28;20248;-73
2021/05/20 02:30:39;;;;;;;2.78;2.53;;;14.40;99.90;;;;;;5050447;28;20195;-73
2021/05/20 02:33:05;;;;;;;3.13;2.85;;;14.40;99.90;;;;;;5051680;28;20222;-74
2021/05/20 02:35:32;;;;;;;3.53;3.20;;;14.40;99.90;;;;;;5071768;28;20202;-74
2021/05/20 02:37:58;;;;;;;2.67;2.42;;;14.30;99.90;;;;;;5061616;28;20718;-74
2021/05/20 02:40:24;;;;;;;2.55;2.35;;;14.30;99.90;;;;;;5051534;28;20206;-74
2021/05/20 02:42:51;;;;;;;3.35;3.05;;;14.30;99.90;;;;;;5067795;28;20194;-73
2021/05/20 02:45:19;;;;;;;3.28;3.08;;;14.30;99.90;;;;;;5051290;28;20210;-74
2021/05/20 02:47:47;;;;;;;3.42;3.13;;;14.30;99.90;;;;;;5051757;28;20213;-74
2021/05/20 02:50:14;;;;;;;3.25;2.90;;;14.30;99.90;;;;;;5071032;28;20657;-74
2021/05/20 02:52:43;;;;;;;3.20;2.90;;;14.30;99.90;;;;;;5058434;28;20225;-73
2021/05/20 02:55:11;;;;;;;3.50;3.20;;;14.20;99.90;;;;;;5069824;28;20198;-73
2021/05/20 02:57:37;;;;;;;2.70;2.50;;;14.20;99.90;;;;;;5066729;28;20626;-74
2021/05/20 03:00:04;;;;;;;3.40;3.10;;;14.20;99.90;;;;;;5069107;28;20194;-73
2021/05/20 03:02:30;;;;;;;2.83;2.63;;;14.20;99.90;;;;;;5052488;28;20206;-73
2021/05/20 03:04:57;;;;;;;3.00;2.70;;;14.20;99.90;;;;;;5055186;28;20692;-73
2021/05/20 03:07:24;;;;;;;4.35;3.50;;;14.20;99.90;;;;;;5062954;28;20195;-73
2021/05/20 03:09:50;;;;;;;3.92;3.47;;;14.20;99.90;;;;;;5050986;28;20206;-73
2021/05/20 03:12:17;;;;;;;3.45;3.15;;;14.20;99.90;;;;;;5050524;28;20219;-73
2021/05/20 03:14:43;;;;;;;3.80;3.35;;;14.20;99.90;;;;;;5050544;28;20195;-73
2021/05/20 03:17:11;;;;;;;4.30;3.92;;;14.20;99.90;;;;;;5050837;28;20194;-74
2021/05/20 03:19:38;;;;;;;4.70;4.25;;;14.30;99.90;;;;;;5050979;28;20265;-74
2021/05/20 03:22:06;;;;;;;6.10;5.05;;;14.20;99.90;;;;;;5050046;28;20246;-73
2021/05/20 03:24:33;;;;;;;6.32;4.35;;;14.20;99.90;;;;;;5050858;28;20230;-74
2021/05/20 03:26:59;;;;;;;4.95;4.22;;;14.20;99.90;;;;;;5056665;28;20194;-74
2021/05/20 03:29:25;;;;;;;7.18;5.57;;;14.20;99.90;;;;;;5070517;28;20240;-74
2021/05/20 03:31:51;;;;;;;6.38;4.15;;;14.10;99.90;;;;;;5069950;28;20206;-74
2021/05/20 03:34:17;;;;;;;5.40;4.65;;;14.10;99.90;;;;;;5051295;28;20191;-73
2021/05/20 03:36:44;;;;;;;6.60;4.82;;;14.10;99.90;;;;;;5055291;28;20198;-74
2021/05/20 03:39:11;;;;;;;5.80;4.65;;;14.10;99.90;;;;;;5050333;28;20202;-73
2021/05/20 03:41:37;;;;;;;6.93;5.93;;;14.10;99.90;;;;;;5050002;28;20199;-74
2021/05/20 03:44:04;;;;;;;5.95;5.22;;;14.00;99.90;;;;;;5050178;28;20275;-74
2021/05/20 03:46:30;;;;;;;8.02;6.40;;;14.00;99.90;;;;;;5056918;28;20201;-73
2021/05/20 03:48:56;;;;;;;6.22;5.00;;;14.00;99.90;;;;;;5069794;28;20214;-74
2021/05/20 03:51:23;;;;;;;7.70;6.30;;;14.00;99.90;;;;;;5062924;28;20209;-73
2021/05/20 03:53:49;;;;;;;9.10;7.03;;;14.00;99.90;;;;;;5069804;28;20685;-74
2021/05/20 03:56:16;;;;;;;7.10;6.07;;;14.00;99.90;;;;;;5050340;28;20631;-74
2021/05/20 03:58:42;;;;;;;8.57;6.25;;;14.00;99.90;;;;;;5050400;28;20241;-74
2021/05/20 04:01:09;;;;;;;7.00;6.07;;;14.10;99.90;;;;;;5050350;28;20206;-74
2021/05/20 04:03:35;;;;;;;8.32;6.10;;;14.00;99.90;;;;;;5049642;28;20248;-73
2021/05/20 04:06:02;;;;;;;8.90;6.70;;;14.00;99.90;;;;;;5063294;28;20202;-74
2021/05/20 04:08:29;;;;;;;8.23;6.07;;;14.00;99.90;;;;;;5056207;28;20205;-73
2021/05/20 04:10:55;;;;;;;9.02;7.53;;;14.00;99.90;;;;;;5050002;28;20202;-74
2021/05/20 04:13:30;;;;;;;8.25;7.40;;;13.90;99.90;;;;;;5057997;28;20739;-74
2021/05/20 04:15:57;;;;;;;9.55;7.20;;;13.90;99.90;;;;;;5057327;28;20229;-74
2021/05/20 04:18:23;;;;;;;11.48;7.30;;;13.90;99.90;;;;;;5056444;28;20194;-74
2021/05/20 04:20:50;;;;;;;8.85;6.80;;;13.90;99.90;;;;;;5069045;28;20233;-74
2021/05/20 04:23:17;;;;;;;12.85;8.82;;;13.90;99.90;;;;;;5056790;28;20602;-73
2021/05/20 04:25:44;;;;;;;11.15;8.65;;;13.90;99.90;;;;;;5049538;28;20643;-74
2021/05/20 04:28:11;;;;;;;14.60;9.98;;;14.00;99.90;;;;;;5049823;28;20203;-73
2021/05/20 04:30:38;;;;;;;11.80;8.38;;;13.90;99.90;;;;;;5051078;28;20203;-73
2021/05/20 04:33:05;;;;;;;14.07;10.07;;;13.90;99.90;;;;;;5051916;28;20222;-73
2021/05/20 04:35:31;;;;;;;11.15;8.43;;;13.90;99.90;;;;;;5049513;28;20249;-73
2021/05/20 04:37:58;;;;;;;10.48;8.25;;;13.90;99.90;;;;;;5055878;28;20670;-74
2021/05/20 04:40:24;;;;;;;11.85;9.10;;;13.90;99.90;;;;;;5063055;28;20581;-73
2021/05/20 04:42:51;;;;;;;11.77;9.02;;;13.90;99.90;;;;;;5052805;28;20198;-73
2021/05/20 04:45:17;;;;;;;12.23;8.68;;;13.90;99.90;;;;;;5050879;28;20195;-73
2021/05/20 04:47:45;;;;;;;14.00;9.55;;;13.90;99.90;;;;;;5055857;28;20203;-73
2021/05/20 04:50:12;;;;;;;14.43;10.15;;;13.90;99.90;;;;;;5051124;28;20207;-73
2021/05/20 04:52:39;;;;;;;12.55;10.25;;;13.80;99.90;;;;;;5070572;28;20214;-73
2021/05/20 04:55:06;;;;;;;14.88;10.27;;;13.90;99.90;;;;;;5061976;28;20722;-74
2021/05/20 04:57:32;;;;;;;14.10;10.00;;;13.80;99.90;;;;;;5064308;28;20194;-73
2021/05/20 04:59:59;;;;;;;16.38;10.02;;;13.80;99.90;;;;;;5059100;28;20229;-74
2021/05/20 05:02:26;;;;;;;14.63;10.05;;;13.80;99.90;;;;;;5054685;28;20223;-74
2021/05/20 05:04:53;;;;;;;14.55;9.60;;;13.80;99.90;;;;;;5063132;28;20194;-74
2021/05/20 05:07:19;;;;;;;14.93;9.30;;;13.80;99.90;;;;;;5072547;28;20198;-74
2021/05/20 05:09:45;;;;;;;13.40;10.15;;;13.70;99.90;;;;;;5054202;28;20214;-74
2021/05/20 05:12:11;;;;;;;20.02;12.35;;;13.70;99.90;;;;;;5053314;28;20234;-74
2021/05/20 05:14:38;;;;;;;15.77;11.52;;;13.70;99.90;;;;;;5060306;28;20638;-73
2021/05/20 05:17:04;;;;;;;17.58;11.30;;;13.70;99.90;;;;;;5073406;28;20205;-73
2021/05/20 05:19:30;;;;;;;13.40;11.15;;;13.70;99.90;;;;;;5070946;28;20198;-74
2021/05/20 05:22:01;;;;;;;16.63;11.98;;;13.70;99.90;;;;;;5067474;28;20807;-74
2021/05/20 05:24:28;;;;;;;15.85;10.23;;;13.70;99.90;;;;;;5053076;28;20201;-74
2021/05/20 05:26:54;;;;;;;16.70;11.77;;;13.70;99.90;;;;;;5052721;28;20203;-74
2021/05/20 05:29:20;;;;;;;17.30;12.13;;;13.70;99.90;;;;;;5057457;28;20195;-73
2021/05/20 05:31:46;;;;;;;13.02;11.15;;;13.70;99.90;;;;;;5070379;28;20218;-73
2021/05/20 05:34:12;;;;;;;18.70;12.57;;;13.70;99.90;;;;;;5071244;28;20194;-73
2021/05/20 05:36:39;;;;;;;15.18;11.93;;;13.70;99.90;;;;;;5054390;28;20209;-74
2021/05/20 05:39:06;;;;;;;22.75;15.70;;;13.70;99.90;;;;;;5063605;28;20631;-74
2021/05/20 05:41:33;;;;;;;20.67;14.32;;;13.70;99.90;;;;;;5052541;28;20202;-74
2021/05/20 05:43:59;;;;;;;17.80;14.68;;;13.80;99.90;;;;;;5061111;28;20251;-74
2021/05/20 05:46:25;;;;;;;21.00;14.55;;;13.70;99.90;;;;;;5065945;28;20199;-74
2021/05/20 05:48:52;;;;;;;22.60;16.30;;;13.80;99.90;;;;;;5052381;28;20210;-74
2021/05/20 05:51:21;;;;;;;23.08;15.75;;;13.80;99.90;;;;;;5051705;28;20195;-74
2021/05/20 05:53:47;;;;;;;21.50;15.07;;;13.90;99.90;;;;;;5052426;28;20222;-73
2021/05/20 05:56:14;;;;;;;21.88;14.85;;;14.00;99.90;;;;;;5052525;28;20209;-74
2021/05/20 05:58:40;;;;;;;20.02;14.95;;;14.00;99.90;;;;;;5064017;28;20703;-74
2021/05/20 06:01:07;;;;;;;22.63;15.05;;;14.10;99.90;;;;;;5063996;28;20202;-74
2021/05/20 06:03:33;;;;;;;18.35;14.45;;;14.10;99.90;;;;;;5062716;28;20627;-74
2021/05/20 06:06:00;;;;;;;20.10;15.70;;;14.20;99.90;;;;;;5058867;28;20202;-73
2021/05/20 06:08:26;;;;;;;16.90;14.32;;;14.20;99.90;;;;;;5052401;28;20203;-73
2021/05/20 06:10:53;;;;;;;19.65;15.57;;;14.20;99.90;;;;;;5057450;28;20190;-74
2021/05/20 06:13:20;;;;;;;18.70;14.55;;;14.30;99.90;;;;;;5071990;28;20214;-74
2021/05/20 06:15:46;;;;;;;19.88;15.10;;;14.30;99.90;;;;;;5066817;28;20285;-73
2021/05/20 06:18:12;;;;;;;16.15;13.55;;;14.30;99.90;;;;;;5052252;28;20210;-73
2021/05/20 06:20:39;;;;;;;23.73;15.70;;;14.30;99.90;;;;;;5055773;28;20528;-73
2021/05/20 06:23:06;;;;;;;20.15;15.77;;;14.30;99.90;;;;;;5071953;28;20635;-73
2021/05/20 06:25:33;;;;;;;21.67;16.40;;;14.40;99.90;;;;;;5067483;28;20207;-73
2021/05/20 06:27:59;;;;;;;23.45;16.40;;;14.40;99.90;;;;;;5070434;28;20205;-73
2021/05/20 06:30:26;;;;;;;20.35;15.60;;;14.50;99.90;;;;;;5066024;28;20606;-74
2021/05/20 06:32:52;;;;;;;18.73;14.00;;;14.40;99.90;;;;;;5068875;28;20218;-73
2021/05/20 06:35:18;;;;;;;21.13;15.18;;;14.50;99.90;;;;;;5070737;28;20198;-73
2021/05/20 06:37:45;;;;;;;20.63;16.13;;;14.40;99.90;;;;;;5068463;28;20198;-73
2021/05/20 06:40:12;;;;;;;21.42;15.07;;;14.50;99.90;;;;;;5065616;28;20720;-73
2021/05/20 06:42:39;;;;;;;20.52;14.50;;;14.50;99.90;;;;;;5051496;28;20194;-73
2021/05/20 06:45:06;;;;;;;18.25;15.00;;;14.50;99.90;;;;;;5050985;28;20637;-73
2021/05/20 06:47:33;;;;;;;23.90;16.13;;;14.50;99.90;;;;;;5051171;28;20194;-74
2021/05/20 06:49:59;;;;;;;23.73;16.58;;;14.50;99.90;;;;;;5070955;28;20198;-74
2021/05/20 06:52:26;;;;;;;22.60;17.02;;;14.50;99.90;;;;;;5069020;28;20218;-73
2021/05/20 06:54:52;;;;;;;23.20;18.05;;;14.50;99.90;;;;;;5051317;28;20217;-74
2021/05/20 06:57:24;;;;;;;19.02;15.80;;;14.60;99.90;;;;;;5061282;28;20737;-73
2021/05/20 06:59:58;;;;;;;19.00;16.10;;;14.60;99.90;;;;;;5055098;28;20906;-73
2021/05/20 07:02:26;;;;;;;20.05;16.50;;;14.60;99.90;;;;;;5059671;28;20195;-74
2021/05/20 07:04:53;;;;;;;19.00;16.70;;;14.70;99.90;;;;;;5054413;28;20194;-74
2021/05/20 07:07:20;;;;;;;19.30;15.98;;;14.90;99.90;;;;;;5069406;28;20194;-74
2021/05/20 07:09:47;;;;;;;18.52;15.20;;;15.00;99.90;;;;;;5060463;28;20222;-74
2021/05/20 07:12:14;;;;;;;21.10;16.55;;;15.10;99.90;;;;;;5062734;28;20562;-74
2021/05/20 07:14:41;;;;;;;19.00;15.18;;;15.20;99.90;;;;;;5069388;28;20221;-73
2021/05/20 07:17:07;;;;;;;22.92;15.90;;;15.20;99.90;;;;;;5062008;28;20199;-74
2021/05/20 07:19:34;;;;;;;19.75;16.55;;;15.20;99.90;;;;;;5056750;28;20603;-74
2021/05/20 07:22:01;;;;;;;18.48;15.07;;;15.20;99.90;;;;;;5053895;28;20283;-73
2021/05/20 07:24:27;;;;;;;16.77;12.80;;;15.30;99.90;;;;;;5052184;28;20352;-70
2021/05/20 07:26:54;;;;;;;18.02;15.00;;;15.40;99.90;;;;;;5054630;28;20751;-70
2021/05/20 07:29:21;;;;;;;18.35;14.60;;;15.50;99.90;;;;;;5062420;28;20196;-70
2021/05/20 07:31:47;;;;;;;20.20;15.85;;;15.70;99.90;;;;;;5063418;28;20201;-71
2021/05/20 07:34:13;;;;;;;18.30;15.15;;;15.80;99.90;;;;;;5052770;28;20225;-71
2021/05/20 07:36:40;;;;;;;17.77;14.90;;;15.90;99.90;;;;;;5056669;28;20257;-71
2021/05/20 07:39:08;;;;;;;16.38;13.90;;;16.00;99.90;;;;;;5050677;28;20707;-70
2021/05/20 07:41:34;;;;;;;17.38;13.45;;;16.20;99.90;;;;;;5052375;28;20199;-71
2021/05/20 07:44:01;;;;;;;16.30;12.95;;;16.40;99.90;;;;;;5051333;28;20205;-72
2021/05/20 07:46:28;;;;;;;15.60;13.85;;;16.40;99.90;;;;;;5062204;28;20210;-71
2021/05/20 07:48:55;;;;;;;19.67;16.50;;;16.40;99.90;;;;;;5050656;28;20202;-71
2021/05/20 07:51:21;;;;;;;18.10;15.38;;;16.40;99.90;;;;;;5050386;28;20528;-71
2021/05/20 07:53:47;;;;;;;17.25;13.80;;;16.40;99.90;;;;;;5051406;28;20221;-71
2021/05/20 07:56:14;;;;;;;20.20;13.90;;;16.40;99.90;;;;;;5058181;28;20210;-71
2021/05/20 07:58:40;;;;;;;17.65;14.30;;;16.50;99.90;;;;;;5051114;28;20207;-71
2021/05/20 08:01:06;;;;;;;15.25;13.27;;;16.50;99.90;;;;;;5062300;28;20203;-71
2021/05/20 08:03:37;;;;;;;17.98;13.00;;;16.50;99.90;;;;;;5050177;28;20627;-71
2021/05/20 08:06:10;;;;;;;18.30;15.30;;;16.50;99.90;;;;;;5056292;28;20547;-71
2021/05/20 08:08:47;;;;;;;16.58;12.85;;;16.40;99.90;;;;;;5050065;28;20202;-71
2021/05/20 08:11:14;;;;;;;21.63;14.20;;;16.30;99.90;;;;;;5050057;28;20233;-71
2021/05/20 08:13:40;;;;;;;15.88;12.30;;;16.30;99.90;;;;;;5055340;28;20224;-71
2021/05/20 08:16:07;;;;;;;18.15;13.70;;;16.30;99.90;;;;;;5061250;28;20228;-71
2021/05/20 08:18:33;;;;;;;15.10;13.52;;;16.40;99.90;;;;;;5066448;28;20574;-71
2021/05/20 08:21:01;;;;;;;17.52;12.65;;;16.60;99.90;;;;;;5054306;28;20879;-72
2021/05/20 08:23:27;;;;;;;16.83;13.38;;;16.70;99.90;;;;;;5051508;28;20267;-71
2021/05/20 08:25:53;;;;;;;14.73;12.20;;;16.80;99.90;;;;;;5049912;28;20257;-72
2021/05/20 08:28:20;;;;;;;15.88;13.25;;;17.00;99.90;;;;;;5050263;28;20210;-71
2021/05/20 08:30:47;;;;;;;14.35;12.73;;;17.10;99.90;;;;;;5057713;28;20201;-71
2021/05/20 08:33:13;;;;;;;16.50;12.80;;;17.20;99.90;;;;;;5063687;28;20222;-71
2021/05/20 08:35:39;;;;;;;16.27;11.70;;;17.10;99.90;;;;;;5073041;28;20201;-71
2021/05/20 08:38:06;;;;;;;16.55;13.15;;;17.20;99.90;;;;;;5067487;28;20907;-71
2021/05/20 08:40:32;;;;;;;17.60;12.68;;;17.20;99.90;;;;;;5053833;28;20205;-71
2021/05/20 08:42:59;;;;;;;14.82;11.15;;;17.30;99.90;;;;;;5052257;28;20202;-71
2021/05/20 08:45:28;;;;;;;13.75;11.05;;;17.40;99.90;;;;;;5053849;28;20199;-71
2021/05/20 08:47:56;;;;;;;14.88;11.57;;;17.40;99.90;;;;;;5054004;28;20214;-71
2021/05/20 08:50:25;;;;;;;16.98;12.80;;;17.40;99.90;;;;;;5052577;28;20202;-72
2021/05/20 08:52:52;;;;;;;14.20;11.65;;;17.40;99.90;;;;;;5054358;28;20276;-71
2021/05/20 08:55:19;;;;;;;16.55;12.13;;;17.40;99.90;;;;;;5056767;28;20259;-71
2021/05/20 08:57:46;;;;;;;14.70;12.68;;;17.30;99.90;;;;;;5070514;28;20198;-70
2021/05/20 09:00:15;;;;;;;16.35;11.27;;;17.20;99.90;;;;;;5070844;28;20198;-69
2021/05/20 09:02:42;;;;;;;15.75;11.18;;;17.20;99.90;;;;;;5053710;28;20504;-69
2021/05/20 09:05:10;;;;;;;14.38;11.65;;;17.10;99.90;;;;;;5057933;28;20567;-71
2021/05/20 09:07:38;;;;;;;14.52;10.30;;;17.10;99.90;;;;;;5053408;28;20256;-71
2021/05/20 09:10:19;;;;;;;16.33;11.30;;;17.20;99.90;;;;;;5053094;28;20281;-70
2021/05/20 09:12:48;;;;;;;12.68;10.18;;;17.20;99.90;;;;;;5061566;28;20328;-70
2021/05/20 09:15:18;;;;;;;12.40;10.98;;;17.40;99.90;;;;;;5049962;28;21833;-70
2021/05/20 09:17:46;;;;;;;16.83;12.10;;;17.40;99.90;;;;;;5052302;28;20658;-70
2021/05/20 09:20:13;;;;;;;15.30;12.93;;;17.50;99.90;;;;;;5056074;28;20253;-70
2021/05/20 09:22:40;;;;;;;13.60;10.98;;;17.60;99.90;;;;;;5055839;28;20199;-69
2021/05/20 09:25:09;;;;;;;14.18;10.95;;;17.70;99.90;;;;;;5052389;28;20756;-69
2021/05/20 09:27:37;;;;;;;16.45;11.13;;;17.80;99.90;;;;;;5056583;28;20198;-69
2021/05/20 09:30:18;;;;;;;11.88;10.20;;;17.90;99.90;;;;;;5052440;28;20208;-70
2021/05/20 09:32:48;;;;;;;13.68;11.60;;;17.90;99.90;;;;;;5058542;28;20754;-70
2021/05/20 09:35:15;;;;;;;11.63;10.38;;;18.00;99.90;;;;;;5053465;28;20652;-71
2021/05/20 09:37:52;;;;;;;12.30;10.63;;;18.00;99.90;;;;;;5057527;28;20635;-71
2021/05/20 09:40:20;;;;;;;11.93;10.43;;;18.00;99.90;;;;;;5051405;28;20198;-70
2021/05/20 09:42:48;;;;;;;14.65;11.68;;;18.10;99.90;;;;;;5065291;28;20574;-69
2021/05/20 09:45:18;;;;;;;13.25;10.45;;;18.10;99.90;;;;;;5071304;28;20222;-70
2021/05/20 09:47:44;;;;;;;12.77;10.23;;;18.10;99.90;;;;;;5070383;28;20206;-71
2021/05/20 09:50:13;;;;;;;13.05;11.50;;;18.20;99.90;;;;;;5055651;28;20199;-70
2021/05/20 09:52:40;;;;;;;12.93;10.27;;;18.20;99.90;;;;;;5064379;28;20558;-70
2021/05/20 09:55:20;;;;;;;11.60;10.40;;;18.20;99.90;;;;;;5060006;28;20207;-70
2021/05/20 09:57:46;;;;;;;13.13;10.13;;;18.20;99.90;;;;;;5056249;28;20210;-70
2021/05/20 10:00:15;;;;;;;12.82;10.25;;;18.20;99.90;;;;;;5062066;28;20198;-70
2021/05/20 10:02:43;;;;;;;14.70;9.98;;;18.30;99.90;;;;;;5057066;28;20233;-70
2021/05/20 10:05:22;;;;;;;12.02;9.98;;;18.20;99.90;;;;;;5069861;28;20206;-70
2021/05/20 10:07:48;;;;;;;10.80;8.82;;;18.20;99.90;;;;;;5064184;28;20213;-70
2021/05/20 10:10:15;;;;;;;14.10;10.80;;;18.20;99.90;;;;;;5066472;28;20198;-70
2021/05/20 10:12:44;;;;;;;12.35;9.43;;;18.10;99.90;;;;;;5070081;28;20679;-70
2021/05/20 10:15:12;;;;;;;10.00;8.98;;;18.10;99.90;;;;;;5059825;28;20209;-70
2021/05/20 10:17:40;;;;;;;9.38;8.30;;;18.00;99.90;;;;;;5054967;28;21033;-70
2021/05/20 10:20:07;;;;;;;8.68;7.75;;;18.00;99.90;;;;;;5056181;28;20300;-70
2021/05/20 10:22:35;;;;;;;11.35;9.05;;;18.00;99.90;;;;;;5066048;28;20186;-71
2021/05/20 10:25:02;;;;;;;9.80;8.80;;;18.00;99.90;;;;;;5051880;28;20213;-70
2021/05/20 10:27:30;;;;;;;8.70;7.80;;;18.00;99.90;;;;;;5056665;28;20203;-70
2021/05/20 10:29:59;;;;;;;9.30;8.38;;;18.00;99.90;;;;;;5059661;28;20542;-70
2021/05/20 10:32:25;;;;;;;11.85;8.70;;;18.10;99.90;;;;;;5058767;28;20205;-69
2021/05/20 10:34:59;;;;;;;9.38;8.27;;;18.10;99.90;;;;;;5067947;28;20198;-70
2021/05/20 10:37:28;;;;;;;11.10;10.00;;;18.10;99.90;;;;;;5061124;28;20586;-70
2021/05/20 10:39:55;;;;;;;9.30;8.43;;;18.10;99.90;;;;;;5071503;28;20213;-69
2021/05/20 10:42:34;;;;;;;8.43;7.53;;;18.10;99.90;;;;;;5066446;28;20276;-71
2021/05/20 10:45:20;;;;;;;10.45;8.82;;;18.10;99.90;;;;;;5064451;28;20205;-70
2021/05/20 10:48:24;;;;;;;8.85;7.75;;;18.10;99.90;;;;;;5049253;28;20194;-71
2021/05/20 10:50:59;;;;;;;7.95;7.07;;;18.10;99.90;;;;;;5064913;28;20205;-71
2021/05/20 10:53:49;;;;;;;8.13;7.40;;;18.10;99.90;;;;;;5064704;28;20222;-69
2021/05/20 10:56:49;;;;;;;8.65;7.75;;;18.10;99.90;;;;;;5059252;28;20232;-70
2021/05/20 10:59:41;;;;;;;10.18;8.82;;;18.10;99.90;;;;;;5057834;28;20203;-69
2021/05/20 11:02:46;;;;;;;8.57;6.97;;;18.20;99.90;;;;;;5066567;28;20198;-70
2021/05/20 11:05:53;;;;;;;8.00;7.30;;;18.10;99.90;;;;;;5051774;28;20673;-70
2021/05/20 11:09:02;;;;;;;8.43;7.63;;;18.20;99.90;;;;;;5069798;28;20213;-71
2021/05/20 11:11:50;;;;;;;8.35;6.70;;;18.20;99.90;;;;;;5058194;28;20194;-71
2021/05/20 11:14:42;;;;;;;8.13;6.95;;;18.20;99.90;;;;;;5068169;28;20260;-70
2021/05/20 11:17:37;;;;;;;9.15;7.30;;;18.20;99.90;;;;;;5048045;28;20281;-71
2021/05/20 11:20:37;;;;;;;6.28;5.45;;;18.20;99.90;;;;;;5066240;28;20307;-70
2021/05/20 11:23:37;;;;;;;8.93;7.05;;;18.20;99.90;;;;;;5056808;28;20202;-71
2021/05/20 11:26:15;;;;;;;7.85;7.15;;;18.20;99.90;;;;;;5055455;28;20190;-71
2021/05/20 11:28:45;;;;;;;7.57;6.20;;;18.20;99.90;;;;;;5069203;28;20200;-71
2021/05/20 11:31:12;;;;;;;8.27;7.47;;;18.20;99.90;;;;;;5069583;28;20263;-70
2021/05/20 11:33:49;;;;;;;7.18;6.05;;;18.20;99.90;;;;;;5064233;28;20266;-70
2021/05/20 11:36:15;;;;;;;6.80;6.10;;;18.20;99.90;;;;;;5068073;28;20193;-70
2021/05/20 11:38:58;;;;;;;7.32;6.25;;;18.20;99.90;;;;;;5053313;28;20645;-69
2021/05/20 11:41:25;;;;;;;9.27;6.53;;;18.20;99.90;;;;;;5059020;28;20281;-69
2021/05/20 11:44:10;;;;;;;7.95;6.70;;;18.30;99.90;;;;;;5050576;28;20199;-69
2021/05/20 11:46:39;;;;;;;9.70;7.05;;;18.20;99.90;;;;;;5055698;28;20669;-70
2021/05/20 11:49:18;;;;;;;8.20;6.38;;;18.30;99.90;;;;;;5068847;28;20194;-71
2021/05/20 11:51:58;;;;;;;7.50;6.70;;;18.30;99.90;;;;;;5054971;28;20197;-69
2021/05/20 11:54:27;;;;;;;6.65;5.82;;;18.30;99.90;;;;;;5055503;28;20222;-70
2021/05/20 11:56:55;;;;;;;7.40;6.70;;;18.30;99.90;;;;;;5057144;28;20193;-70
2021/05/20 11:59:41;;;;;;;7.70;6.57;;;18.30;99.90;;;;;;5062524;28;20198;-69
2021/05/20 12:02:11;;;;;;;7.45;6.75;;;18.30;99.90;;;;;;5051725;28;20229;-69
2021/05/20 12:04:37;;;;;;;6.22;5.20;;;18.30;99.90;;;;;;5064941;28;20204;-70
2021/05/20 12:07:05;;;;;;;7.28;5.65;;;18.30;99.90;;;;;;5057898;28;20627;-70
2021/05/20 12:09:31;;;;;;;6.75;5.35;;;18.30;99.90;;;;;;5057498;28;20381;-73
2021/05/20 12:12:08;;;;;;;8.32;5.80;;;18.30;99.90;;;;;;5065968;28;20199;-72
2021/05/20 12:14:35;;;;;;;5.53;4.93;;;18.20;99.90;;;;;;5075069;28;20221;-71
2021/05/20 12:17:06;;;;;;;5.57;4.82;;;18.20;99.90;;;;;;5060877;28;20209;-71
2021/05/20 12:19:35;;;;;;;5.93;5.32;;;18.20;99.90;;;;;;5054107;28;20281;-71
2021/05/20 12:22:03;;;;;;;6.78;5.47;;;18.20;99.90;;;;;;5059641;28;20237;-71
2021/05/20 12:24:31;;;;;;;5.43;4.93;;;18.20;99.90;;;;;;5052624;28;20190;-70
2021/05/20 12:27:05;;;;;;;5.82;5.22;;;18.30;99.90;;;;;;5054570;28;20669;-71
2021/05/20 12:29:31;;;;;;;5.15;3.88;;;18.30;99.90;;;;;;5061222;28;20209;-70
2021/05/20 12:31:57;;;;;;;5.63;5.07;;;18.20;99.90;;;;;;5056304;28;20191;-70
2021/05/20 12:34:24;;;;;;;6.70;4.95;;;18.20;99.90;;;;;;5052175;28;20217;-71
2021/05/20 12:36:51;;;;;;;5.63;5.03;;;18.20;99.90;;;;;;5068811;28;20202;-71
2021/05/20 12:39:17;;;;;;;5.05;4.55;;;18.20;99.90;;;;;;5054720;28;20206;-72
2021/05/20 12:41:43;;;;;;;4.75;4.35;;;18.20;99.90;;;;;;5057838;28;20255;-70
2021/05/20 12:44:13;;;;;;;5.00;4.32;;;18.30;99.90;;;;;;5064237;28;20190;-71
2021/05/20 12:46:40;;;;;;;4.78;3.78;;;18.20;99.90;;;;;;5058943;28;20205;-70